sensor_id;sensor_type;location;lat;lon;timestamp;pressure;altitude;pressure_sealevel;temperature;humidity
32638;BME280;19045;52.268;10.506;2023-05-21T00:00:00;100970.63;;;13.53;99.94
32638;BME280;19045;52.268;10.506;2023-05-21T00:02:36;100971.72;;;13.52;100.00
32638;BME280;19045;52.268;10.506;2023-05-21T00:05:04;100964.94;;;13.44;100.00
32638;BME280;19045;52.268;10.506;2023-05-21T00:07:30;100964.13;;;13.38;100.00
32638;BME280;19045;52.268;10.506;2023-05-21T00:09:58;100962.47;;;13.37;100.00
32638;BME280;19045;52.268;10.506;2023-05-21T00:12:24;100958.97;;;13.37;100.00
32638;BME280;19045;52.268;10.506;2023-05-21T00:14:51;100959.78;;;13.37;100.00
32638;BME280;19045;52.268;10.506;2023-05-21T00:17:17;100950.63;;;13.38;100.00
32638;BME280;19045;52.268;10.506;2023-05-21T00:19:45;100951.94;;;13.36;100.00
32638;BME280;19045;52.268;10.506;2023-05-21T00:22:14;100953.31;;;13.38;100.00
32638;BME280;19045;52.268;10.506;2023-05-21T00:24:42;100956.50;;;13.30;100.00
32638;BME280;19045;52.268;10.506;2023-05-21T00:27:10;100950.53;;;13.23;100.00
32638;BME280;19045;52.268;10.506;2023-05-21T00:29:37;100946.25;;;13.27;100.00
32638;BME280;19045;52.268;10.506;2023-05-21T00:32:04;100947.28;;;13.21;100.00
32638;BME280;19045;52.268;10.506;2023-05-21T00:34:31;100937.78;;;13.09;100.00
32638;BME280;19045;52.268;10.506;2023-05-21T00:36:59;100940.25;;;13.15;100.00
32638;BME280;19045;52.268;10.506;2023-05-21T00:39:27;100940.78;;;13.12;100.00
32638;BME280;19045;52.268;10.506;2023-05-21T00:41:53;100934.47;;;13.07;100.00
32638;BME280;19045;52.268;10.506;2023-05-21T00:44:21;100930.47;;;13.09;100.00
32638;BME280;19045;52.268;10.506;2023-05-21T00:46:48;100936.34;;;13.06;100.00
32638;BME280;19045;52.268;10.506;2023-05-21T00:49:17;100931.28;;;13.10;100.00
32638;BME280;19045;52.268;10.506;2023-05-21T00:51:46;100935.28;;;13.07;100.00
32638;BME280;19045;52.268;10.506;2023-05-21T00:54:14;100928.78;;;12.98;100.00
32638;BME280;19045;52.268;10.506;2023-05-21T00:56:41;100928.47;;;12.94;100.00
32638;BME280;19045;52.268;10.506;2023-05-21T00:59:08;100926.09;;;13.03;100.00
32638;BME280;19045;52.268;10.506;2023-05-21T01:01:34;100923.38;;;12.98;100.00
32638;BME280;19045;52.268;10.506;2023-05-21T01:04:02;100928.50;;;13.00;100.00
32638;BME280;19045;52.268;10.506;2023-05-21T01:06:29;100918.28;;;13.02;100.00
32638;BME280;19045;52.268;10.506;2023-05-21T01:08:59;100918.22;;;12.96;100.00
32638;BME280;19045;52.268;10.506;2023-05-21T01:11:36;100912.56;;;12.93;100.00
32638;BME280;19045;52.268;10.506;2023-05-21T01:14:04;100914.16;;;12.89;100.00
32638;BME280;19045;52.268;10.506;2023-05-21T01:16:34;100910.66;;;12.88;100.00
32638;BME280;19045;52.268;10.506;2023-05-21T01:19:00;100911.41;;;12.79;100.00
32638;BME280;19045;52.268;10.506;2023-05-21T01:21:29;100913.56;;;12.82;100.00
32638;BME280;19045;52.268;10.506;2023-05-21T01:23:57;100911.41;;;12.84;100.00
32638;BME280;19045;52.268;10.506;2023-05-21T01:26:23;100907.06;;;12.78;100.00
32638;BME280;19045;52.268;10.506;2023-05-21T01:28:50;100896.81;;;12.75;100.00
32638;BME280;19045;52.268;10.506;2023-05-21T01:31:25;100905.66;;;12.70;100.00
32638;BME280;19045;52.268;10.506;2023-05-21T01:33:55;100903.78;;;12.71;100.00
32638;BME280;19045;52.268;10.506;2023-05-21T01:36:27;100892.19;;;12.70;100.00
32638;BME280;19045;52.268;10.506;2023-05-21T01:39:01;100888.16;;;12.73;100.00
32638;BME280;19045;52.268;10.506;2023-05-21T01:41:32;100900.03;;;12.72;100.00
32638;BME280;19045;52.268;10.506;2023-05-21T01:44:00;100903.50;;;12.67;100.00
32638;BME280;19045;52.268;10.506;2023-05-21T01:46:29;100895.09;;;12.64;100.00
32638;BME280;19045;52.268;10.506;2023-05-21T01:48:58;100892.63;;;12.57;100.00
32638;BME280;19045;52.268;10.506;2023-05-21T01:51:26;100895.03;;;12.54;100.00
32638;BME280;19045;52.268;10.506;2023-05-21T01:53:53;100893.97;;;12.55;100.00
32638;BME280;19045;52.268;10.506;2023-05-21T01:56:21;100890.97;;;12.51;100.00
32638;BME280;19045;52.268;10.506;2023-05-21T01:58:50;100896.88;;;12.48;100.00
32638;BME280;19045;52.268;10.506;2023-05-21T02:01:18;100886.94;;;12.54;100.00
32638;BME280;19045;52.268;10.506;2023-05-21T02:03:45;100895.81;;;12.49;100.00
32638;BME280;19045;52.268;10.506;2023-05-21T02:06:12;100896.38;;;12.51;100.00
32638;BME280;19045;52.268;10.506;2023-05-21T02:08:38;100888.81;;;12.48;100.00
32638;BME280;19045;52.268;10.506;2023-05-21T02:11:05;100891.72;;;12.41;100.00
32638;BME280;19045;52.268;10.506;2023-05-21T02:13:33;100890.09;;;12.40;100.00
32638;BME280;19045;52.268;10.506;2023-05-21T02:16:05;100887.88;;;12.32;100.00
32638;BME280;19045;52.268;10.506;2023-05-21T02:18:34;100890.28;;;12.34;100.00
32638;BME280;19045;52.268;10.506;2023-05-21T02:21:01;100879.81;;;12.37;100.00
32638;BME280;19045;52.268;10.506;2023-05-21T02:23:28;100890.09;;;12.40;100.00
32638;BME280;19045;52.268;10.506;2023-05-21T02:25:54;100882.72;;;12.31;100.00
32638;BME280;19045;52.268;10.506;2023-05-21T02:28:21;100879.00;;;12.37;100.00
32638;BME280;19045;52.268;10.506;2023-05-21T02:30:49;100888.13;;;12.31;100.00
32638;BME280;19045;52.268;10.506;2023-05-21T02:33:16;100879.19;;;12.25;100.00
32638;BME280;19045;52.268;10.506;2023-05-21T02:35:44;100883.22;;;12.23;100.00
32638;BME280;19045;52.268;10.506;2023-05-21T02:38:10;100886.97;;;12.22;100.00
32638;BME280;19045;52.268;10.506;2023-05-21T02:40:37;100890.22;;;12.24;100.00
32638;BME280;19045;52.268;10.506;2023-05-21T02:43:04;100891.56;;;12.26;100.00
32638;BME280;19045;52.268;10.506;2023-05-21T02:45:31;100888.88;;;12.26;100.00
32638;BME280;19045;52.268;10.506;2023-05-21T02:47:59;100886.91;;;12.17;100.00
32638;BME280;19045;52.268;10.506;2023-05-21T02:50:27;100887.19;;;12.15;100.00
32638;BME280;19045;52.268;10.506;2023-05-21T02:52:54;100888.75;;;12.11;100.00
32638;BME280;19045;52.268;10.506;2023-05-21T02:55:21;100880.44;;;12.13;100.00
32638;BME280;19045;52.268;10.506;2023-05-21T02:57:47;100878.50;;;12.08;100.00
32638;BME280;19045;52.268;10.506;2023-05-21T03:00:14;100885.25;;;12.11;100.00
32638;BME280;19045;52.268;10.506;2023-05-21T03:02:41;100877.38;;;12.04;100.00
32638;BME280;19045;52.268;10.506;2023-05-21T03:05:09;100876.63;;;12.09;100.00
32638;BME280;19045;52.268;10.506;2023-05-21T03:07:36;100880.66;;;12.06;100.00
32638;BME280;19045;52.268;10.506;2023-05-21T03:10:03;100879.84;;;12.06;100.00
32638;BME280;19045;52.268;10.506;2023-05-21T03:12:30;100879.84;;;12.06;100.00
32638;BME280;19045;52.268;10.506;2023-05-21T03:14:56;100867.97;;;12.07;100.00
32638;BME280;19045;52.268;10.506;2023-05-21T03:17:23;100864.69;;;12.00;100.00
32638;BME280;19045;52.268;10.506;2023-05-21T03:19:50;100871.19;;;12.04;100.00
32638;BME280;19045;52.268;10.506;2023-05-21T03:22:20;100856.34;;;12.01;100.00
32638;BME280;19045;52.268;10.506;2023-05-21T03:24:46;100865.19;;;11.97;100.00
32638;BME280;19045;52.268;10.506;2023-05-21T03:27:13;100865.50;;;12.00;100.00
32638;BME280;19045;52.268;10.506;2023-05-21T03:29:39;100875.72;;;11.98;100.00
32638;BME280;19045;52.268;10.506;2023-05-21T03:32:07;100866.56;;;11.99;100.00
32638;BME280;19045;52.268;10.506;2023-05-21T03:34:34;100873.06;;;12.03;100.00
32638;BME280;19045;52.268;10.506;2023-05-21T03:37:00;100867.13;;;12.01;100.00
32638;BME280;19045;52.268;10.506;2023-05-21T03:39:28;100860.69;;;12.02;100.00
32638;BME280;19045;52.268;10.506;2023-05-21T03:41:55;100869.06;;;12.06;100.00
32638;BME280;19045;52.268;10.506;2023-05-21T03:44:22;100872.47;;;11.96;100.00
32638;BME280;19045;52.268;10.506;2023-05-21T03:46:48;100867.66;;;12.03;100.00
32638;BME280;19045;52.268;10.506;2023-05-21T03:49:15;100868.25;;;12.05;100.00
32638;BME280;19045;52.268;10.506;2023-05-21T03:51:41;100862.28;;;12.03;100.00
32638;BME280;19045;52.268;10.506;2023-05-21T03:54:08;100869.59;;;12.08;100.00
32638;BME280;19045;52.268;10.506;2023-05-21T03:56:36;100861.78;;;12.06;100.00
32638;BME280;19045;52.268;10.506;2023-05-21T03:59:02;100865.34;;;12.12;100.00
32638;BME280;19045;52.268;10.506;2023-05-21T04:01:29;100859.69;;;12.13;100.00
32638;BME280;19045;52.268;10.506;2023-05-21T04:03:57;100862.88;;;12.10;100.00
32638;BME280;19045;52.268;10.506;2023-05-21T04:06:23;100859.88;;;12.07;100.00
32638;BME280;19045;52.268;10.506;2023-05-21T04:08:50;100864.22;;;12.08;100.00
32638;BME280;19045;52.268;10.506;2023-05-21T04:11:17;100868.06;;;12.17;100.00
32638;BME280;19045;52.268;10.506;2023-05-21T04:13:45;100862.47;;;12.23;100.00
32638;BME280;19045;52.268;10.506;2023-05-21T04:16:12;100865.16;;;12.23;100.00
32638;BME280;19045;52.268;10.506;2023-05-21T04:18:43;100864.41;;;12.28;100.00
32638;BME280;19045;52.268;10.506;2023-05-21T04:21:09;100865.53;;;12.37;100.00
32638;BME280;19045;52.268;10.506;2023-05-21T04:23:36;100858.81;;;12.39;100.00
32638;BME280;19045;52.268;10.506;2023-05-21T04:26:03;100861.50;;;12.39;100.00
32638;BME280;19045;52.268;10.506;2023-05-21T04:28:29;100858.03;;;12.44;100.00
32638;BME280;19045;52.268;10.506;2023-05-21T04:30:58;100862.66;;;12.49;100.00
32638;BME280;19045;52.268;10.506;2023-05-21T04:33:25;100858.41;;;12.58;100.00
32638;BME280;19045;52.268;10.506;2023-05-21T04:35:53;100869.78;;;12.65;100.00
32638;BME280;19045;52.268;10.506;2023-05-21T04:38:20;100864.19;;;12.76;100.00
32638;BME280;19045;52.268;10.506;2023-05-21T04:40:48;100872.34;;;12.86;100.00
32638;BME280;19045;52.268;10.506;2023-05-21T04:43:18;100869.97;;;13.00;100.00
32638;BME280;19045;52.268;10.506;2023-05-21T04:45:49;100868.47;;;13.14;100.00
32638;BME280;19045;52.268;10.506;2023-05-21T04:48:18;100869.06;;;13.26;100.00
32638;BME280;19045;52.268;10.506;2023-05-21T04:50:45;100876.13;;;13.42;100.00
32638;BME280;19045;52.268;10.506;2023-05-21T04:53:11;100876.97;;;13.53;100.00
32638;BME280;19045;52.268;10.506;2023-05-21T04:55:38;100878.34;;;13.56;100.00
32638;BME280;19045;52.268;10.506;2023-05-21T04:58:06;100880.53;;;13.64;100.00
32638;BME280;19045;52.268;10.506;2023-05-21T05:00:32;100877.84;;;13.74;100.00
32638;BME280;19045;52.268;10.506;2023-05-21T05:03:01;100876.00;;;13.84;99.48
32638;BME280;19045;52.268;10.506;2023-05-21T05:05:29;100876.81;;;13.95;99.52
32638;BME280;19045;52.268;10.506;2023-05-21T05:07:56;100869.53;;;14.01;99.23
32638;BME280;19045;52.268;10.506;2023-05-21T05:10:23;100859.00;;;14.04;98.54
32638;BME280;19045;52.268;10.506;2023-05-21T05:12:50;100874.66;;;14.07;98.58
32638;BME280;19045;52.268;10.506;2023-05-21T05:15:18;100868.47;;;14.22;98.42
32638;BME280;19045;52.268;10.506;2023-05-21T05:17:47;100880.06;;;14.32;97.04
32638;BME280;19045;52.268;10.506;2023-05-21T05:20:14;100868.75;;;14.35;96.54
32638;BME280;19045;52.268;10.506;2023-05-21T05:22:42;100867.91;;;14.30;96.88
32638;BME280;19045;52.268;10.506;2023-05-21T05:25:09;100866.03;;;14.30;97.16
32638;BME280;19045;52.268;10.506;2023-05-21T05:27:36;100872.25;;;14.36;96.44
32638;BME280;19045;52.268;10.506;2023-05-21T05:30:03;100870.91;;;14.28;97.14
32638;BME280;19045;52.268;10.506;2023-05-21T05:32:30;100867.38;;;14.23;97.72
32638;BME280;19045;52.268;10.506;2023-05-21T05:34:57;100854.94;;;14.27;97.62
32638;BME280;19045;52.268;10.506;2023-05-21T05:37:24;100857.16;;;14.35;97.70
32638;BME280;19045;52.268;10.506;2023-05-21T05:39:52;100856.84;;;14.31;98.13
32638;BME280;19045;52.268;10.506;2023-05-21T05:42:18;100861.41;;;14.26;97.77
32638;BME280;19045;52.268;10.506;2023-05-21T05:44:45;100861.44;;;14.31;97.92
32638;BME280;19045;52.268;10.506;2023-05-21T05:47:12;100858.44;;;14.32;97.99
32638;BME280;19045;52.268;10.506;2023-05-21T05:49:38;100854.69;;;14.43;97.83
32638;BME280;19045;52.268;10.506;2023-05-21T05:52:05;100856.59;;;14.58;97.25
32638;BME280;19045;52.268;10.506;2023-05-21T05:54:32;100856.84;;;14.67;95.91
32638;BME280;19045;52.268;10.506;2023-05-21T05:57:00;100855.72;;;14.73;95.99
32638;BME280;19045;52.268;10.506;2023-05-21T05:59:26;100856.81;;;14.77;95.78
32638;BME280;19045;52.268;10.506;2023-05-21T06:01:53;100860.88;;;14.74;95.65
32638;BME280;19045;52.268;10.506;2023-05-21T06:04:19;100858.16;;;14.79;96.68
32638;BME280;19045;52.268;10.506;2023-05-21T06:06:46;100857.88;;;14.86;96.37
32638;BME280;19045;52.268;10.506;2023-05-21T06:09:13;100853.28;;;14.81;95.59
32638;BME280;19045;52.268;10.506;2023-05-21T06:11:39;100863.81;;;14.88;95.49
32638;BME280;19045;52.268;10.506;2023-05-21T06:14:07;100860.28;;;14.97;95.74
32638;BME280;19045;52.268;10.506;2023-05-21T06:16:34;100861.84;;;15.14;94.58
32638;BME280;19045;52.268;10.506;2023-05-21T06:19:01;100854.75;;;15.23;93.91
32638;BME280;19045;52.268;10.506;2023-05-21T06:21:28;100856.09;;;15.30;94.10
32638;BME280;19045;52.268;10.506;2023-05-21T06:23:55;100859.03;;;15.39;94.10
32638;BME280;19045;52.268;10.506;2023-05-21T06:26:21;100857.69;;;15.36;93.42
32638;BME280;19045;52.268;10.506;2023-05-21T06:28:48;100865.75;;;15.46;93.08
32638;BME280;19045;52.268;10.506;2023-05-21T06:31:16;100859.00;;;15.54;92.64
32638;BME280;19045;52.268;10.506;2023-05-21T06:33:43;100864.63;;;15.63;92.28
32638;BME280;19045;52.268;10.506;2023-05-21T06:36:09;100869.50;;;15.61;91.96
32638;BME280;19045;52.268;10.506;2023-05-21T06:38:36;100861.84;;;15.73;91.92
32638;BME280;19045;52.268;10.506;2023-05-21T06:41:03;100870.25;;;15.71;91.53
32638;BME280;19045;52.268;10.506;2023-05-21T06:43:29;100862.31;;;15.85;91.25
32638;BME280;19045;52.268;10.506;2023-05-21T06:45:56;100857.84;;;16.04;90.38
32638;BME280;19045;52.268;10.506;2023-05-21T06:48:24;100858.31;;;16.11;90.11
32638;BME280;19045;52.268;10.506;2023-05-21T06:50:50;100858.22;;;16.26;89.55
32638;BME280;19045;52.268;10.506;2023-05-21T06:53:17;100855.81;;;16.53;89.19
32638;BME280;19045;52.268;10.506;2023-05-21T06:55:44;100857.31;;;16.93;86.64
32638;BME280;19045;52.268;10.506;2023-05-21T06:58:11;100865.19;;;17.37;84.89
32638;BME280;19045;52.268;10.506;2023-05-21T07:00:37;100855.63;;;17.64;83.10
32638;BME280;19045;52.268;10.506;2023-05-21T07:03:04;100852.03;;;17.87;81.52
32638;BME280;19045;52.268;10.506;2023-05-21T07:05:32;100847.63;;;17.91;81.73
32638;BME280;19045;52.268;10.506;2023-05-21T07:07:58;100849.09;;;18.02;81.25
32638;BME280;19045;52.268;10.506;2023-05-21T07:10:25;100851.56;;;18.17;80.58
32638;BME280;19045;52.268;10.506;2023-05-21T07:12:51;100843.56;;;18.07;80.62
32638;BME280;19045;52.268;10.506;2023-05-21T07:15:21;100842.25;;;18.04;81.00
32638;BME280;19045;52.268;10.506;2023-05-21T07:17:48;100855.25;;;18.07;81.30
32638;BME280;19045;52.268;10.506;2023-05-21T07:20:14;100841.69;;;18.21;81.33
32638;BME280;19045;52.268;10.506;2023-05-21T07:22:42;100861.66;;;18.30;80.79
32638;BME280;19045;52.268;10.506;2023-05-21T07:25:18;100863.19;;;18.36;80.03
32638;BME280;19045;52.268;10.506;2023-05-21T07:27:44;100863.72;;;18.38;79.76
32638;BME280;19045;52.268;10.506;2023-05-21T07:30:12;100867.91;;;18.31;80.10
32638;BME280;19045;52.268;10.506;2023-05-21T07:32:39;100853.56;;;18.12;81.30
32638;BME280;19045;52.268;10.506;2023-05-21T07:35:06;100856.28;;;18.12;81.73
32638;BME280;19045;52.268;10.506;2023-05-21T07:37:33;100861.22;;;18.10;82.36
32638;BME280;19045;52.268;10.506;2023-05-21T07:40:01;100857.31;;;18.16;82.13
32638;BME280;19045;52.268;10.506;2023-05-21T07:42:29;100855.41;;;18.30;82.54
32638;BME280;19045;52.268;10.506;2023-05-21T07:44:56;100851.44;;;18.41;81.21
32638;BME280;19045;52.268;10.506;2023-05-21T07:47:23;100859.91;;;18.39;81.75
32638;BME280;19045;52.268;10.506;2023-05-21T07:49:49;100857.09;;;18.44;81.43
32638;BME280;19045;52.268;10.506;2023-05-21T07:52:16;100857.53;;;18.51;81.65
32638;BME280;19045;52.268;10.506;2023-05-21T07:54:43;100859.78;;;18.77;80.69
32638;BME280;19045;52.268;10.506;2023-05-21T07:57:10;100853.34;;;19.00;79.89
32638;BME280;19045;52.268;10.506;2023-05-21T07:59:37;100851.84;;;19.07;78.90
32638;BME280;19045;52.268;10.506;2023-05-21T08:02:04;100852.53;;;19.27;78.26
32638;BME280;19045;52.268;10.506;2023-05-21T08:04:30;100853.34;;;19.41;77.31
32638;BME280;19045;52.268;10.506;2023-05-21T08:06:57;100845.03;;;19.59;76.46
32638;BME280;19045;52.268;10.506;2023-05-21T08:09:23;100849.97;;;19.71;75.59
32638;BME280;19045;52.268;10.506;2023-05-21T08:11:50;100844.38;;;19.76;75.32
32638;BME280;19045;52.268;10.506;2023-05-21T08:14:18;100849.22;;;19.79;75.03
32638;BME280;19045;52.268;10.506;2023-05-21T08:16:45;100847.97;;;19.85;75.30
32638;BME280;19045;52.268;10.506;2023-05-21T08:19:12;100851.28;;;19.96;75.12
32638;BME280;19045;52.268;10.506;2023-05-21T08:21:39;100851.13;;;20.15;74.14
32638;BME280;19045;52.268;10.506;2023-05-21T08:24:06;100844.06;;;20.36;73.42
32638;BME280;19045;52.268;10.506;2023-05-21T08:26:33;100856.00;;;20.26;73.16
32638;BME280;19045;52.268;10.506;2023-05-21T08:29:00;100857.03;;;20.30;73.26
32638;BME280;19045;52.268;10.506;2023-05-21T08:31:28;100858.13;;;20.51;73.09
32638;BME280;19045;52.268;10.506;2023-05-21T08:33:55;100851.91;;;20.59;72.06
32638;BME280;19045;52.268;10.506;2023-05-21T08:36:23;100852.69;;;20.51;72.57
32638;BME280;19045;52.268;10.506;2023-05-21T08:38:50;100850.19;;;20.72;71.85
32638;BME280;19045;52.268;10.506;2023-05-21T08:41:17;100854.56;;;20.82;71.55
32638;BME280;19045;52.268;10.506;2023-05-21T08:43:47;100844.53;;;20.99;71.23
32638;BME280;19045;52.268;10.506;2023-05-21T08:46:20;100847.44;;;21.03;70.53
32638;BME280;19045;52.268;10.506;2023-05-21T08:48:50;100852.41;;;21.01;70.75
32638;BME280;19045;52.268;10.506;2023-05-21T08:51:20;100858.91;;;21.13;70.70
32638;BME280;19045;52.268;10.506;2023-05-21T08:53:48;100854.91;;;21.20;70.36
32638;BME280;19045;52.268;10.506;2023-05-21T08:56:15;100857.53;;;20.94;71.35
32638;BME280;19045;52.268;10.506;2023-05-21T08:58:44;100854.47;;;20.95;71.44
32638;BME280;19045;52.268;10.506;2023-05-21T09:01:11;100840.09;;;21.12;71.78
32638;BME280;19045;52.268;10.506;2023-05-21T09:03:39;100839.63;;;21.10;71.13
32638;BME280;19045;52.268;10.506;2023-05-21T09:06:09;100840.97;;;20.99;71.41
32638;BME280;19045;52.268;10.506;2023-05-21T09:08:42;100831.69;;;21.00;71.59
32638;BME280;19045;52.268;10.506;2023-05-21T09:11:09;100835.69;;;20.94;72.27
32638;BME280;19045;52.268;10.506;2023-05-21T09:13:36;100831.59;;;21.13;71.78
32638;BME280;19045;52.268;10.506;2023-05-21T09:16:04;100829.22;;;21.38;71.13
32638;BME280;19045;52.268;10.506;2023-05-21T09:18:31;100837.63;;;21.76;70.10
32638;BME280;19045;52.268;10.506;2023-05-21T09:21:26;100836.59;;;22.49;68.36
32638;BME280;19045;52.268;10.506;2023-05-21T09:23:54;100835.34;;;22.93;65.52
32638;BME280;19045;52.268;10.506;2023-05-21T09:26:21;100833.69;;;23.30;63.78
32638;BME280;19045;52.268;10.506;2023-05-21T09:28:48;100826.22;;;23.39;62.70
32638;BME280;19045;52.268;10.506;2023-05-21T09:31:14;100830.13;;;23.58;62.20
32638;BME280;19045;52.268;10.506;2023-05-21T09:33:44;100830.06;;;23.88;61.66
32638;BME280;19045;52.268;10.506;2023-05-21T09:36:11;100822.94;;;24.40;60.39
32638;BME280;19045;52.268;10.506;2023-05-21T09:38:40;100823.63;;;24.94;58.69
32638;BME280;19045;52.268;10.506;2023-05-21T09:41:06;100823.91;;;24.81;58.74
32638;BME280;19045;52.268;10.506;2023-05-21T09:43:33;100825.81;;;24.89;58.71
32638;BME280;19045;52.268;10.506;2023-05-21T09:45:59;100833.53;;;24.62;58.74
32638;BME280;19045;52.268;10.506;2023-05-21T09:48:33;100822.31;;;24.55;59.42
32638;BME280;19045;52.268;10.506;2023-05-21T09:51:08;100823.91;;;24.68;59.42
32638;BME280;19045;52.268;10.506;2023-05-21T09:53:35;100819.78;;;24.62;59.64
32638;BME280;19045;52.268;10.506;2023-05-21T09:56:03;100817.63;;;24.68;59.97
32638;BME280;19045;52.268;10.506;2023-05-21T09:58:31;100814.19;;;24.59;59.99
32638;BME280;19045;52.268;10.506;2023-05-21T10:00:59;100808.13;;;24.21;60.68
32638;BME280;19045;52.268;10.506;2023-05-21T10:03:26;100808.06;;;24.08;61.57
32638;BME280;19045;52.268;10.506;2023-05-21T10:05:54;100798.16;;;24.61;61.62
32638;BME280;19045;52.268;10.506;2023-05-21T10:08:26;100799.66;;;25.19;59.63
32638;BME280;19045;52.268;10.506;2023-05-21T10:10:55;100798.72;;;25.51;58.13
32638;BME280;19045;52.268;10.506;2023-05-21T10:13:23;100789.59;;;25.75;57.43
32638;BME280;19045;52.268;10.506;2023-05-21T10:15:54;100794.63;;;25.73;56.58
32638;BME280;19045;52.268;10.506;2023-05-21T10:18:23;100786.81;;;25.35;57.43
32638;BME280;19045;52.268;10.506;2023-05-21T10:20:51;100785.84;;;25.43;57.85
32638;BME280;19045;52.268;10.506;2023-05-21T10:23:19;100788.69;;;25.59;56.90
32638;BME280;19045;52.268;10.506;2023-05-21T10:25:46;100778.47;;;25.72;57.45
32638;BME280;19045;52.268;10.506;2023-05-21T10:28:15;100783.25;;;26.02;56.50
32638;BME280;19045;52.268;10.506;2023-05-21T10:30:44;100779.63;;;26.57;54.75
32638;BME280;19045;52.268;10.506;2023-05-21T10:33:12;100777.59;;;27.20;54.49
32638;BME280;19045;52.268;10.506;2023-05-21T10:35:41;100778.16;;;27.45;52.45
32638;BME280;19045;52.268;10.506;2023-05-21T10:38:08;100779.09;;;27.18;52.43
32638;BME280;19045;52.268;10.506;2023-05-21T10:40:36;100777.28;;;26.59;53.93
32638;BME280;19045;52.268;10.506;2023-05-21T10:43:18;100775.28;;;26.88;53.36
32638;BME280;19045;52.268;10.506;2023-05-21T10:46:14;100762.94;;;27.16;53.05
32638;BME280;19045;52.268;10.506;2023-05-21T10:48:59;100770.69;;;27.46;52.46
32638;BME280;19045;52.268;10.506;2023-05-21T10:51:28;100765.81;;;27.78;51.13
32638;BME280;19045;52.268;10.506;2023-05-21T10:54:31;100775.03;;;28.23;49.64
32638;BME280;19045;52.268;10.506;2023-05-21T10:57:08;100760.28;;;28.16;47.58
32638;BME280;19045;52.268;10.506;2023-05-21T10:59:41;100766.16;;;28.37;47.43
32638;BME280;19045;52.268;10.506;2023-05-21T11:02:11;100770.66;;;28.03;46.96
32638;BME280;19045;52.268;10.506;2023-05-21T11:04:39;100768.06;;;27.72;47.87
32638;BME280;19045;52.268;10.506;2023-05-21T11:07:08;100764.94;;;27.93;47.64
32638;BME280;19045;52.268;10.506;2023-05-21T11:09:35;100754.56;;;27.86;48.41
32638;BME280;19045;52.268;10.506;2023-05-21T11:12:01;100763.13;;;27.81;48.71
32638;BME280;19045;52.268;10.506;2023-05-21T11:14:33;100760.34;;;28.19;49.19
32638;BME280;19045;52.268;10.506;2023-05-21T11:17:10;100751.31;;;28.22;49.31
32638;BME280;19045;52.268;10.506;2023-05-21T11:19:39;100751.66;;;28.21;47.68
32638;BME280;19045;52.268;10.506;2023-05-21T11:22:07;100751.72;;;28.47;46.55
32638;BME280;19045;52.268;10.506;2023-05-21T11:24:39;100748.94;;;28.47;47.06
32638;BME280;19045;52.268;10.506;2023-05-21T11:27:06;100744.06;;;28.60;46.57
32638;BME280;19045;52.268;10.506;2023-05-21T11:29:42;100747.66;;;28.41;47.93
32638;BME280;19045;52.268;10.506;2023-05-21T11:32:12;100739.75;;;28.40;48.23
32638;BME280;19045;52.268;10.506;2023-05-21T11:34:40;100743.47;;;28.51;47.27
32638;BME280;19045;52.268;10.506;2023-05-21T11:37:30;100742.13;;;28.87;46.03
32638;BME280;19045;52.268;10.506;2023-05-21T11:40:21;100736.97;;;28.62;46.79
32638;BME280;19045;52.268;10.506;2023-05-21T11:42:50;100727.09;;;28.88;47.61
32638;BME280;19045;52.268;10.506;2023-05-21T11:45:18;100728.72;;;28.40;48.05
32638;BME280;19045;52.268;10.506;2023-05-21T11:47:46;100732.94;;;28.11;49.27
32638;BME280;19045;52.268;10.506;2023-05-21T11:50:14;100725.44;;;27.50;48.36
32638;BME280;19045;52.268;10.506;2023-05-21T11:52:41;100726.56;;;27.30;49.23
32638;BME280;19045;52.268;10.506;2023-05-21T11:55:09;100728.69;;;27.37;49.95
32638;BME280;19045;52.268;10.506;2023-05-21T11:57:36;100736.81;;;27.30;48.15
32638;BME280;19045;52.268;10.506;2023-05-21T12:00:04;100737.16;;;27.44;48.30
32638;BME280;19045;52.268;10.506;2023-05-21T12:02:39;100724.41;;;27.58;48.78
32638;BME280;19045;52.268;10.506;2023-05-21T12:05:10;100728.03;;;27.82;48.14
32638;BME280;19045;52.268;10.506;2023-05-21T12:07:37;100722.16;;;27.83;47.99
32638;BME280;19045;52.268;10.506;2023-05-21T12:10:04;100711.47;;;27.62;47.76
32638;BME280;19045;52.268;10.506;2023-05-21T12:12:31;100718.47;;;27.56;48.54
32638;BME280;19045;52.268;10.506;2023-05-21T12:14:58;100713.47;;;27.85;47.20
32638;BME280;19045;52.268;10.506;2023-05-21T12:17:25;100712.13;;;27.98;46.66
32638;BME280;19045;52.268;10.506;2023-05-21T12:19:53;100710.28;;;27.83;46.46
32638;BME280;19045;52.268;10.506;2023-05-21T12:22:22;100714.47;;;27.96;46.33
32638;BME280;19045;52.268;10.506;2023-05-21T12:24:49;100704.56;;;28.14;45.49
32638;BME280;19045;52.268;10.506;2023-05-21T12:27:18;100697.03;;;28.34;45.67
32638;BME280;19045;52.268;10.506;2023-05-21T12:29:48;100702.59;;;28.37;44.54
32638;BME280;19045;52.268;10.506;2023-05-21T12:32:16;100702.25;;;28.65;44.45
32638;BME280;19045;52.268;10.506;2023-05-21T12:34:44;100707.78;;;28.65;43.88
32638;BME280;19045;52.268;10.506;2023-05-21T12:37:15;100684.88;;;28.91;43.14
32638;BME280;19045;52.268;10.506;2023-05-21T12:39:44;100701.91;;;28.93;42.30